Time;durP1;ratioP1;P1;durP2;ratioP2;P2;SDS_P1;SDS_P2;PMS_P1;PMS_P2;Temp;Humidity;BMP_temperature;BMP_pressure;BME280_temperature;BME280_humidity;BME280_pressure;Samples;Min_cycle;Max_cycle;Signal;HPM_P1;HPM_P2
2024/04/24 00:02:00;;;;;;;;;;;;;;;;;;5514277;25;19928;-55
2024/04/24 00:04:26;;;;;;;;;;;;;;;;;;5517973;26;19931;-54
2024/04/24 00:06:52;;;;;;;;;;;;;;;;;;5515999;25;19931;-56
2024/04/24 00:09:18;;;;;;;;;;;;;;;;;;5499641;26;19996;-56
2024/04/24 00:11:44;;;;;;;;;;;;;;;;;;5506465;26;20368;-57
2024/04/24 00:14:10;;;;;;;;;;;;;;;;;;5510156;26;19939;-56
2024/04/24 00:16:36;;;;;;;;;;;;;;;;;;5504174;25;19927;-56
2024/04/24 00:19:02;;;;;;;;;;;;;;;;;;5512129;26;19935;-56
2024/04/24 00:21:28;;;;;;;;;;;;;;;;;;5499514;25;20340;-56
2024/04/24 00:23:54;;;;;;;;;;;;;;;;;;5514423;26;20347;-56
2024/04/24 00:26:20;;;;;;;;;;;;;;;;;;5504139;25;19996;-57
2024/04/24 00:28:46;;;;;;;;;;;;;;;;;;5512481;26;19939;-56
2024/04/24 00:31:12;;;;;;;;;;;;;;;;;;5509566;25;20023;-56
2024/04/24 00:33:38;;;;;;;;;;;;;;;;;;5509385;26;19931;-56
2024/04/24 00:36:03;;;;;;;;;;;;;;;;;;5509991;25;19931;-56
2024/04/24 00:38:29;;;;;;;;;;;;;;;;;;5498591;26;20439;-56
2024/04/24 00:40:55;;;;;;;;;;;;;;;;;;5505249;25;20249;-56
2024/04/24 00:43:21;;;;;;;;;;;;;;;;;;5489063;26;20564;-56
2024/04/24 00:45:47;;;;;;;;;;;;;;;;;;5502271;25;19928;-56
2024/04/24 00:48:13;;;;;;;;;;;;;;;;;;5518495;26;19934;-56
2024/04/24 00:50:39;;;;;;;;;;;;;;;;;;5498200;25;19932;-55
2024/04/24 00:53:05;;;;;;;;;;;;;;;;;;5509374;26;19943;-56
2024/04/24 00:55:31;;;;;;;;;;;;;;;;;;5462183;26;19928;-56
2024/04/24 00:57:57;;;;;;;;;;;;;;;;;;5500233;26;19928;-56
2024/04/24 01:00:23;;;;;;;;;;;;;;;;;;5515850;25;19927;-56
2024/04/24 01:02:49;;;;;;;;;;;;;;;;;;5494874;26;19927;-56
2024/04/24 01:05:15;;;;;;;;;;;;;;;;;;5501938;25;20338;-56
2024/04/24 01:07:41;;;;;;;;;;;;;;;;;;5503780;26;20004;-51
2024/04/24 01:10:07;;;;;;;;;;;;;;;;;;5520444;25;20361;-52
2024/04/24 01:12:33;;;;;;;;;;;;;;;;;;5512809;26;19928;-52
2024/04/24 01:14:59;;;;;;;;;;;;;;;;;;5515589;25;19935;-54
2024/04/24 01:17:25;;;;;;;;;;;;;;;;;;5498733;25;19935;-52
2024/04/24 01:19:51;;;;;;;;;;;;;;;;;;5502476;25;19935;-56
2024/04/24 01:22:17;;;;;;;;;;;;;;;;;;5504652;25;19934;-56
2024/04/24 01:24:43;;;;;;;;;;;;;;;;;;5491717;25;19932;-56
2024/04/24 01:27:09;;;;;;;;;;;;;;;;;;5513718;25;20359;-56
2024/04/24 01:29:35;;;;;;;;;;;;;;;;;;5507048;26;20265;-56
2024/04/24 01:32:01;;;;;;;;;;;;;;;;;;5498431;25;19928;-55
2024/04/24 01:34:26;;;;;;;;;;;;;;;;;;5495791;26;19977;-56
2024/04/24 01:36:52;;;;;;;;;;;;;;;;;;5502575;25;19995;-56
2024/04/24 01:39:18;;;;;;;;;;;;;;;;;;5505098;26;19936;-55
2024/04/24 01:41:44;;;;;;;;;;;;;;;;;;5518228;25;19935;-56
2024/04/24 01:44:10;;;;;;;;;;;;;;;;;;5496864;26;20299;-56
2024/04/24 01:46:36;;;;;;;;;;;;;;;;;;5501747;25;20383;-56
2024/04/24 01:49:02;;;;;;;;;;;;;;;;;;5487740;26;19935;-56
2024/04/24 01:51:28;;;;;;;;;;;;;;;;;;5512623;25;19934;-56
2024/04/24 01:53:55;;;;;;;;;;;;;;;;;;5494080;25;19936;-56
2024/04/24 01:56:21;;;;;;;;;;;;;;;;;;5511360;25;20356;-56
2024/04/24 01:58:47;;;;;;;;;;;;;;;;;;5499156;26;20021;-56
2024/04/24 02:01:13;;;;;;;;;;;;;;;;;;5504456;25;19939;-56
2024/04/24 02:03:38;;;;;;;;;;;;;;;;;;5488499;26;19939;-56
2024/04/24 02:06:04;;;;;;;;;;;;;;;;;;5511697;25;19936;-56
2024/04/24 02:08:33;;;;;;;;;;;;;;;;;;5518072;26;19998;-57
2024/04/24 02:10:59;;;;;;;;;;;;;;;;;;5503519;25;19934;-56
2024/04/24 02:13:25;;;;;;;;;;;;;;;;;;5493711;26;19928;-56
2024/04/24 02:15:51;;;;;;;;;;;;;;;;;;5499291;25;20263;-56
2024/04/24 02:18:17;;;;;;;;;;;;;;;;;;5486912;26;20355;-57
2024/04/24 02:20:43;;;;;;;;;;;;;;;;;;5503634;25;19934;-56
2024/04/24 02:23:12;;;;;;;;;;;;;;;;;;5494687;26;19928;-57
2024/04/24 02:25:38;;;;;;;;;;;;;;;;;;5512168;25;20039;-56
2024/04/24 02:28:04;;;;;;;;;;;;;;;;;;5517116;26;19931;-56
2024/04/24 02:30:30;;;;;;;;;;;;;;;;;;5510762;25;19928;-56
2024/04/24 02:32:56;;;;;;;;;;;;;;;;;;5486585;26;19939;-56
2024/04/24 02:35:22;;;;;;;;;;;;;;;;;;5503083;26;19936;-56
2024/04/24 02:37:48;;;;;;;;;;;;;;;;;;5507291;26;19927;-56
2024/04/24 02:40:14;;;;;;;;;;;;;;;;;;5514683;25;19952;-56
2024/04/24 02:42:40;;;;;;;;;;;;;;;;;;5502130;25;19942;-56
2024/04/24 02:45:06;;;;;;;;;;;;;;;;;;5519041;25;19926;-56
2024/04/24 02:47:32;;;;;;;;;;;;;;;;;;5499738;26;19935;-56
2024/04/24 02:49:58;;;;;;;;;;;;;;;;;;5500266;25;19928;-56
2024/04/24 02:52:24;;;;;;;;;;;;;;;;;;5493392;25;20366;-56
2024/04/24 02:54:49;;;;;;;;;;;;;;;;;;5494252;26;20264;-56
2024/04/24 02:57:15;;;;;;;;;;;;;;;;;;5507753;26;20371;-56
2024/04/24 02:59:41;;;;;;;;;;;;;;;;;;5510005;26;19927;-56
2024/04/24 03:02:07;;;;;;;;;;;;;;;;;;5492885;25;19942;-56
2024/04/24 03:04:33;;;;;;;;;;;;;;;;;;5502980;26;19936;-56
2024/04/24 03:06:59;;;;;;;;;;;;;;;;;;5502333;25;19996;-56
2024/04/24 03:09:25;;;;;;;;;;;;;;;;;;5510658;26;19928;-56
2024/04/24 03:11:51;;;;;;;;;;;;;;;;;;5503723;25;19946;-56
2024/04/24 03:14:17;;;;;;;;;;;;;;;;;;5515315;25;19928;-56
2024/04/24 03:16:43;;;;;;;;;;;;;;;;;;5506054;25;20419;-56
2024/04/24 03:19:09;;;;;;;;;;;;;;;;;;5497363;26;19928;-56
2024/04/24 03:21:35;;;;;;;;;;;;;;;;;;5498320;25;19991;-56
2024/04/24 03:24:01;;;;;;;;;;;;;;;;;;5497835;26;19928;-56
2024/04/24 03:26:27;;;;;;;;;;;;;;;;;;5495318;25;19992;-56
2024/04/24 03:28:53;;;;;;;;;;;;;;;;;;5509161;25;19931;-56
2024/04/24 03:31:19;;;;;;;;;;;;;;;;;;5501691;25;19942;-56
2024/04/24 03:33:45;;;;;;;;;;;;;;;;;;5509784;25;20535;-56
2024/04/24 03:36:11;;;;;;;;;;;;;;;;;;5503802;25;19939;-56
2024/04/24 03:38:37;;;;;;;;;;;;;;;;;;5500741;26;19960;-56
2024/04/24 03:41:03;;;;;;;;;;;;;;;;;;5500346;25;20319;-53
2024/04/24 03:43:29;;;;;;;;;;;;;;;;;;5485014;26;19928;-53
2024/04/24 03:45:54;;;;;;;;;;;;;;;;;;5486983;25;19939;-53
2024/04/24 03:48:20;;;;;;;;;;;;;;;;;;5494567;26;19936;-53
2024/04/24 03:50:46;;;;;;;;;;;;;;;;;;5508175;25;19936;-53
2024/04/24 03:53:12;;;;;;;;;;;;;;;;;;5502473;26;19935;-53
2024/04/24 03:55:38;;;;;;;;;;;;;;;;;;5496427;26;19934;-52
2024/04/24 03:58:04;;;;;;;;;;;;;;;;;;5485065;26;20015;-52
2024/04/24 04:00:30;;;;;;;;;;;;;;;;;;5492550;25;19962;-53
2024/04/24 04:02:56;;;;;;;;;;;;;;;;;;5496093;26;19935;-52
2024/04/24 04:05:22;;;;;;;;;;;;;;;;;;5490251;25;19943;-52
2024/04/24 04:07:48;;;;;;;;;;;;;;;;;;5496548;26;19928;-53
2024/04/24 04:10:14;;;;;;;;;;;;;;;;;;5498344;25;19931;-52
2024/04/24 04:12:41;;;;;;;;;;;;;;;;;;5500865;26;20262;-54
2024/04/24 04:15:07;;;;;;;;;;;;;;;;;;5507145;25;20262;-53
2024/04/24 04:17:33;;;;;;;;;;;;;;;;;;5462295;26;19936;-53
2024/04/24 04:19:59;;;;;;;;;;;;;;;;;;5515516;25;19932;-53
2024/04/24 04:22:25;;;;;;;;;;;;;;;;;;5502640;25;19928;-52
2024/04/24 04:24:51;;;;;;;;;;;;;;;;;;5498355;25;19928;-54
2024/04/24 04:27:17;;;;;;;;;;;;;;;;;;5510389;25;19944;-53
2024/04/24 04:29:43;;;;;;;;;;;;;;;;;;5502027;26;19943;-56
2024/04/24 04:32:09;;;;;;;;;;;;;;;;;;5501536;26;19927;-57
2024/04/24 04:34:35;;;;;;;;;;;;;;;;;;5496389;26;19927;-57
2024/04/24 04:37:01;;;;;;;;;;;;;;;;;;5508308;25;19932;-57
2024/04/24 04:39:26;;;;;;;;;;;;;;;;;;5495563;26;19934;-57
2024/04/24 04:41:52;;;;;;;;;;;;;;;;;;5511571;25;19934;-58
2024/04/24 04:44:18;;;;;;;;;;;;;;;;;;5500708;26;19935;-58
2024/04/24 04:46:44;;;;;;;;;;;;;;;;;;5505731;25;19943;-58
2024/04/24 04:49:10;;;;;;;;;;;;;;;;;;5492142;26;20318;-57
2024/04/24 04:51:36;;;;;;;;;;;;;;;;;;5511805;25;19939;-55
2024/04/24 04:54:02;;;;;;;;;;;;;;;;;;5497232;26;19928;-55
2024/04/24 04:56:28;;;;;;;;;;;;;;;;;;5498818;26;19956;-55
2024/04/24 04:58:54;;;;;;;;;;;;;;;;;;5509861;26;20015;-55
2024/04/24 05:01:20;;;;;;;;;;;;;;;;;;5508780;25;19935;-55
2024/04/24 05:03:46;;;;;;;;;;;;;;;;;;5512862;26;20350;-55
2024/04/24 05:06:12;;;;;;;;;;;;;;;;;;5498734;25;19939;-55
2024/04/24 05:08:38;;;;;;;;;;;;;;;;;;5511602;25;19928;-55
2024/04/24 05:11:04;;;;;;;;;;;;;;;;;;5513655;25;19927;-55
2024/04/24 05:13:30;;;;;;;;;;;;;;;;;;5503940;26;19935;-55
2024/04/24 05:15:56;;;;;;;;;;;;;;;;;;5502639;25;19936;-55
2024/04/24 05:18:22;;;;;;;;;;;;;;;;;;5502163;26;19928;-55
2024/04/24 05:20:48;;;;;;;;;;;;;;;;;;5504677;26;20362;-56
2024/04/24 05:23:14;;;;;;;;;;;;;;;;;;5499438;26;19939;-55
2024/04/24 05:25:40;;;;;;;;;;;;;;;;;;5501968;25;19939;-55
2024/04/24 05:30:51;;;;;;;;;;;;;;;;;;5508079;26;19931;-55
2024/04/24 05:33:16;;;;;;;;;;;;;;;;;;5508545;25;19928;-56
2024/04/24 05:35:43;;;;;;;;;;;;;;;;;;5498114;26;20268;-55
2024/04/24 05:38:08;;;;;;;;;;;;;;;;;;5471949;26;19928;-55
2024/04/24 05:40:35;;;;;;;;;;;;;;;;;;5523231;25;19927;-57
2024/04/24 05:43:01;;;;;;;;;;;;;;;;;;5491332;26;19936;-58
2024/04/24 05:45:27;;;;;;;;;;;;;;;;;;5501513;25;19935;-58
2024/04/24 05:47:53;;;;;;;;;;;;;;;;;;5499330;26;19931;-58
2024/04/24 05:50:19;;;;;;;;;;;;;;;;;;5502118;25;19995;-58
2024/04/24 05:52:45;;;;;;;;;;;;;;;;;;5502636;26;19934;-58
2024/04/24 05:55:11;;;;;;;;;;;;;;;;;;5510156;25;19945;-59
2024/04/24 05:57:37;;;;;;;;;;;;;;;;;;5518177;25;19939;-58
2024/04/24 06:00:04;;;;;;;;;;;;;;;;;;5512996;25;19943;-58
2024/04/24 06:02:29;;;;;;;;;;;;;;;;;;5522680;26;19936;-54
2024/04/24 06:04:55;;;;;;;;;;;;;;;;;;5524934;25;19938;-55
2024/04/24 06:07:21;;;;;;;;;;;;;;;;;;5533118;25;20258;-55
2024/04/24 06:09:47;;;;;;;;;;;;;;;;;;5502470;25;19942;-53
2024/04/24 06:12:13;;;;;;;;;;;;;;;;;;5510921;25;20441;-54
2024/04/24 06:14:39;;;;;;;;;;;;;;;;;;5454407;26;20348;-54
2024/04/24 06:17:05;;;;;;;;;;;;;;;;;;5547871;25;19940;-53
2024/04/24 06:19:31;;;;;;;;;;;;;;;;;;5520181;26;20352;-53
2024/04/24 06:21:57;;;;;;;;;;;;;;;;;;5511622;25;19927;-53
2024/04/24 06:24:23;;;;;;;;;;;;;;;;;;5519964;26;19939;-54
2024/04/24 06:26:49;;;;;;;;;;;;;;;;;;5541232;25;19960;-54
2024/04/24 06:29:15;;;;;;;;;;;;;;;;;;5505721;26;20248;-55
2024/04/24 06:31:41;;;;;;;;;;;;;;;;;;5544158;25;20304;-53
2024/04/24 06:34:07;;;;;;;;;;;;;;;;;;5513210;26;19932;-53
2024/04/24 06:36:33;;;;;;;;;;;;;;;;;;5512788;25;19954;-54
2024/04/24 06:39:00;;;;;;;;;;;;;;;;;;5504028;26;19928;-55
2024/04/24 06:41:26;;;;;;;;;;;;;;;;;;5493596;25;19977;-54
2024/04/24 06:43:55;;;;;;;;;;;;;;;;;;5500303;26;19934;-54
2024/04/24 06:46:21;;;;;;;;;;;;;;;;;;5504603;25;19928;-54
2024/04/24 06:48:46;;;;;;;;;;;;;;;;;;5505227;26;19994;-54
2024/04/24 06:51:12;;;;;;;;;;;;;;;;;;5527507;25;19927;-59
2024/04/24 06:53:38;;;;;;;;;;;;;;;;;;5494393;26;19936;-60
2024/04/24 06:56:05;;;;;;;;;;;;;;;;;;5489220;25;19938;-58
2024/04/24 06:58:31;;;;;;;;;;;;;;;;;;5512078;26;20359;-59
2024/04/24 07:00:56;;;;;;;;;;;;;;;;;;5519644;25;19928;-59
2024/04/24 07:03:23;;;;;;;;;;;;;;;;;;5497582;26;19928;-58
2024/04/24 07:05:49;;;;;;;;;;;;;;;;;;5491602;25;19927;-59
2024/04/24 07:08:15;;;;;;;;;;;;;;;;;;5503273;26;19946;-59
2024/04/24 07:10:41;;;;;;;;;;;;;;;;;;5507062;26;20320;-59
2024/04/24 07:13:07;;;;;;;;;;;;;;;;;;5519156;26;19931;-58
2024/04/24 07:15:33;;;;;;;;;;;;;;;;;;5516845;25;19942;-58
2024/04/24 07:17:59;;;;;;;;;;;;;;;;;;5528840;25;19927;-58
2024/04/24 07:20:25;;;;;;;;;;;;;;;;;;5506224;25;19931;-58
2024/04/24 07:22:51;;;;;;;;;;;;;;;;;;5508131;26;19928;-64
2024/04/24 07:25:17;;;;;;;;;;;;;;;;;;5518396;25;19934;-58
2024/04/24 07:27:43;;;;;;;;;;;;;;;;;;5508142;26;19933;-59
2024/04/24 07:30:09;;;;;;;;;;;;;;;;;;5506679;25;20251;-57
2024/04/24 07:32:35;;;;;;;;;;;;;;;;;;5506740;26;20004;-59
2024/04/24 07:35:01;;;;;;;;;;;;;;;;;;5504184;26;20069;-58
2024/04/24 07:37:27;;;;;;;;;;;;;;;;;;5488629;26;19997;-58
2024/04/24 07:39:53;;;;;;;;;;;;;;;;;;5503990;26;19935;-59
2024/04/24 07:42:19;;;;;;;;;;;;;;;;;;5496852;26;19927;-59
2024/04/24 07:44:45;;;;;;;;;;;;;;;;;;5507543;26;20345;-59
2024/04/24 07:47:11;;;;;;;;;;;;;;;;;;5503364;26;20263;-59
2024/04/24 07:49:37;;;;;;;;;;;;;;;;;;5458024;26;19932;-59
2024/04/24 07:52:03;;;;;;;;;;;;;;;;;;5516084;25;20706;-58
2024/04/24 07:54:29;;;;;;;;;;;;;;;;;;5504062;26;20359;-58
2024/04/24 07:56:56;;;;;;;;;;;;;;;;;;5512388;25;19935;-58
2024/04/24 07:59:22;;;;;;;;;;;;;;;;;;5494576;26;19940;-58
2024/04/24 08:01:48;;;;;;;;;;;;;;;;;;5502053;26;20362;-56
2024/04/24 08:04:14;;;;;;;;;;;;;;;;;;5502874;26;20513;-56
2024/04/24 08:06:40;;;;;;;;;;;;;;;;;;5509983;25;19942;-56
2024/04/24 08:09:06;;;;;;;;;;;;;;;;;;5499849;26;19935;-56
2024/04/24 08:11:31;;;;;;;;;;;;;;;;;;5504465;26;20252;-57
2024/04/24 08:13:57;;;;;;;;;;;;;;;;;;5495848;26;19995;-56
2024/04/24 08:16:23;;;;;;;;;;;;;;;;;;5499709;25;19928;-56
2024/04/24 08:18:49;;;;;;;;;;;;;;;;;;5510858;26;19927;-56
2024/04/24 08:21:15;;;;;;;;;;;;;;;;;;5494710;26;20332;-57
2024/04/24 08:23:41;;;;;;;;;;;;;;;;;;5496505;26;19935;-58
2024/04/24 08:26:07;;;;;;;;;;;;;;;;;;5509280;25;19932;-57
2024/04/24 08:28:33;;;;;;;;;;;;;;;;;;5493423;26;19935;-57
2024/04/24 08:30:59;;;;;;;;;;;;;;;;;;5509030;26;20019;-57
2024/04/24 08:33:25;;;;;;;;;;;;;;;;;;5496561;26;19928;-56
2024/04/24 08:35:51;;;;;;;;;;;;;;;;;;5502656;25;19952;-56
2024/04/24 08:38:17;;;;;;;;;;;;;;;;;;5497489;25;20368;-56
2024/04/24 08:40:46;;;;;;;;;;;;;;;;;;5510928;25;19935;-56
2024/04/24 08:43:12;;;;;;;;;;;;;;;;;;5491203;26;19927;-56
2024/04/24 08:45:38;;;;;;;;;;;;;;;;;;5519166;26;19995;-57
2024/04/24 08:48:04;;;;;;;;;;;;;;;;;;5497205;26;19928;-56
2024/04/24 08:50:30;;;;;;;;;;;;;;;;;;5521614;25;20147;-57
2024/04/24 08:52:56;;;;;;;;;;;;;;;;;;5510700;26;19944;-57
2024/04/24 08:55:22;;;;;;;;;;;;;;;;;;5519457;25;19927;-57
2024/04/24 08:57:48;;;;;;;;;;;;;;;;;;5507733;26;19928;-57
2024/04/24 09:00:14;;;;;;;;;;;;;;;;;;5501943;25;20359;-57
2024/04/24 09:02:40;;;;;;;;;;;;;;;;;;5512795;26;19935;-56
2024/04/24 09:05:06;;;;;;;;;;;;;;;;;;5509584;25;19934;-57
2024/04/24 09:07:32;;;;;;;;;;;;;;;;;;5492478;26;19946;-57
2024/04/24 09:09:58;;;;;;;;;;;;;;;;;;5513945;25;19928;-57
2024/04/24 09:12:24;;;;;;;;;;;;;;;;;;5501336;25;19956;-57
2024/04/24 09:14:50;;;;;;;;;;;;;;;;;;5503388;25;19935;-57
2024/04/24 09:17:16;;;;;;;;;;;;;;;;;;5502805;26;19939;-57
2024/04/24 09:19:42;;;;;;;;;;;;;;;;;;5506802;26;19936;-56
2024/04/24 09:22:08;;;;;;;;;;;;;;;;;;5504781;26;19936;-56
2024/04/24 09:24:34;;;;;;;;;;;;;;;;;;5504765;26;19928;-56
2024/04/24 09:27:00;;;;;;;;;;;;;;;;;;5506363;25;19943;-56
2024/04/24 09:29:26;;;;;;;;;;;;;;;;;;5497942;26;19940;-56
2024/04/24 09:31:52;;;;;;;;;;;;;;;;;;5514355;25;19928;-56
2024/04/24 09:34:18;;;;;;;;;;;;;;;;;;5503747;26;19928;-56
2024/04/24 09:36:44;;;;;;;;;;;;;;;;;;5502834;25;20280;-56
2024/04/24 09:39:10;;;;;;;;;;;;;;;;;;5505607;26;20375;-56
2024/04/24 09:41:36;;;;;;;;;;;;;;;;;;5501246;25;19976;-56
2024/04/24 09:44:02;;;;;;;;;;;;;;;;;;5504347;26;19935;-56
2024/04/24 09:46:28;;;;;;;;;;;;;;;;;;5512552;25;20275;-56
2024/04/24 09:48:54;;;;;;;;;;;;;;;;;;5502925;26;19931;-56
2024/04/24 09:51:20;;;;;;;;;;;;;;;;;;5514848;25;19927;-56
2024/04/24 09:53:46;;;;;;;;;;;;;;;;;;5500845;26;19940;-56
2024/04/24 09:56:12;;;;;;;;;;;;;;;;;;5500054;25;19928;-56
2024/04/24 09:58:38;;;;;;;;;;;;;;;;;;5508642;25;20316;-57
2024/04/24 10:01:04;;;;;;;;;;;;;;;;;;5505184;25;19934;-57
2024/04/24 10:03:30;;;;;;;;;;;;;;;;;;5507075;26;19928;-57
2024/04/24 10:05:56;;;;;;;;;;;;;;;;;;5514212;25;19927;-57
2024/04/24 10:08:22;;;;;;;;;;;;;;;;;;5505337;26;19935;-56
2024/04/24 10:10:48;;;;;;;;;;;;;;;;;;5506837;25;19940;-57
2024/04/24 10:13:14;;;;;;;;;;;;;;;;;;5493796;26;19928;-57
2024/04/24 10:15:41;;;;;;;;;;;;;;;;;;5516284;25;19939;-57
2024/04/24 10:18:07;;;;;;;;;;;;;;;;;;5512634;26;20001;-56
2024/04/24 10:20:33;;;;;;;;;;;;;;;;;;5499632;25;19936;-56
2024/04/24 10:22:59;;;;;;;;;;;;;;;;;;5492595;26;19942;-55
2024/04/24 10:25:25;;;;;;;;;;;;;;;;;;5497698;26;20387;-56
2024/04/24 10:27:51;;;;;;;;;;;;;;;;;;5518565;26;19931;-55
2024/04/24 10:30:17;;;;;;;;;;;;;;;;;;5504744;25;19947;-55
2024/04/24 10:32:43;;;;;;;;;;;;;;;;;;5502284;26;20341;-56
2024/04/24 10:35:09;;;;;;;;;;;;;;;;;;5503969;25;20270;-56
2024/04/24 10:37:35;;;;;;;;;;;;;;;;;;5494908;26;19935;-56
2024/04/24 10:40:01;;;;;;;;;;;;;;;;;;5509852;25;19943;-56
2024/04/24 10:42:27;;;;;;;;;;;;;;;;;;5509872;25;19928;-55
2024/04/24 10:44:53;;;;;;;;;;;;;;;;;;5490358;25;19936;-55
2024/04/24 10:47:20;;;;;;;;;;;;;;;;;;5515239;26;19928;-55
2024/04/24 10:49:45;;;;;;;;;;;;;;;;;;5508260;25;19934;-55
2024/04/24 10:52:11;;;;;;;;;;;;;;;;;;5499869;25;19928;-55
2024/04/24 10:54:37;;;;;;;;;;;;;;;;;;5494872;26;19954;-55
2024/04/24 10:57:03;;;;;;;;;;;;;;;;;;5517162;25;19931;-56
2024/04/24 10:59:29;;;;;;;;;;;;;;;;;;5496580;26;19928;-56
2024/04/24 11:01:55;;;;;;;;;;;;;;;;;;5500105;26;19932;-56
2024/04/24 11:04:22;;;;;;;;;;;;;;;;;;5487579;26;19947;-56
2024/04/24 11:06:48;;;;;;;;;;;;;;;;;;5503674;25;19927;-56
2024/04/24 11:09:14;;;;;;;;;;;;;;;;;;5495859;26;19939;-55
2024/04/24 11:11:40;;;;;;;;;;;;;;;;;;5498562;25;19936;-56
2024/04/24 11:14:06;;;;;;;;;;;;;;;;;;5512860;26;20257;-56
2024/04/24 11:16:32;;;;;;;;;;;;;;;;;;5509263;25;19935;-56
2024/04/24 11:18:58;;;;;;;;;;;;;;;;;;5499407;26;20005;-56
2024/04/24 11:21:24;;;;;;;;;;;;;;;;;;5487805;25;19935;-56
2024/04/24 11:23:50;;;;;;;;;;;;;;;;;;5489146;26;20255;-55
2024/04/24 11:26:17;;;;;;;;;;;;;;;;;;5495683;26;19947;-56
2024/04/24 11:28:42;;;;;;;;;;;;;;;;;;5503561;26;19942;-55
2024/04/24 11:31:08;;;;;;;;;;;;;;;;;;5506683;25;19928;-55
2024/04/24 11:33:34;;;;;;;;;;;;;;;;;;5493435;26;19931;-56
2024/04/24 11:36:00;;;;;;;;;;;;;;;;;;5507354;25;19958;-55
2024/04/24 11:38:26;;;;;;;;;;;;;;;;;;5497411;26;19928;-55
2024/04/24 11:40:52;;;;;;;;;;;;;;;;;;5513416;25;19931;-55
2024/04/24 11:43:18;;;;;;;;;;;;;;;;;;5500342;26;19928;-58
2024/04/24 11:45:44;;;;;;;;;;;;;;;;;;5460851;26;19936;-58
2024/04/24 11:48:10;;;;;;;;;;;;;;;;;;5493459;26;20256;-58
2024/04/24 11:50:37;;;;;;;;;;;;;;;;;;5498795;25;19931;-58
2024/04/24 11:53:03;;;;;;;;;;;;;;;;;;5484997;26;20275;-53
2024/04/24 11:55:29;;;;;;;;;;;;;;;;;;5496716;25;19934;-53
2024/04/24 11:57:54;;;;;;;;;;;;;;;;;;5512140;26;19928;-53
2024/04/24 12:00:20;;;;;;;;;;;;;;;;;;5515577;25;20262;-54
2024/04/24 12:02:46;;;;;;;;;;;;;;;;;;5490091;26;20359;-54
2024/04/24 12:05:12;;;;;;;;;;;;;;;;;;5503253;25;19942;-53
2024/04/24 12:07:38;;;;;;;;;;;;;;;;;;5485357;26;19928;-53
2024/04/24 12:10:06;;;;;;;;;;;;;;;;;;5498044;25;19934;-56
2024/04/24 12:12:32;;;;;;;;;;;;;;;;;;5487440;26;19964;-54
2024/04/24 12:14:58;;;;;;;;;;;;;;;;;;5515945;25;19954;-54
2024/04/24 12:17:24;;;;;;;;;;;;;;;;;;5512471;25;19928;-54
2024/04/24 12:19:50;;;;;;;;;;;;;;;;;;5511293;26;19928;-55
2024/04/24 12:22:16;;;;;;;;;;;;;;;;;;5494611;25;19935;-53
2024/04/24 12:24:42;;;;;;;;;;;;;;;;;;5510994;25;20299;-53
2024/04/24 12:27:08;;;;;;;;;;;;;;;;;;5507536;25;20367;-53
2024/04/24 12:29:34;;;;;;;;;;;;;;;;;;5499110;26;20350;-52
2024/04/24 12:32:00;;;;;;;;;;;;;;;;;;5514835;25;19939;-53
2024/04/24 12:34:26;;;;;;;;;;;;;;;;;;5504635;25;19935;-54
2024/04/24 12:36:54;;;;;;;;;;;;;;;;;;5506087;26;19928;-53
2024/04/24 12:39:20;;;;;;;;;;;;;;;;;;5512658;26;19947;-53
2024/04/24 12:41:46;;;;;;;;;;;;;;;;;;5494418;25;19928;-52
2024/04/24 12:44:11;;;;;;;;;;;;;;;;;;5499568;25;19928;-52
2024/04/24 12:46:38;;;;;;;;;;;;;;;;;;5505587;25;20003;-51
2024/04/24 12:49:04;;;;;;;;;;;;;;;;;;5515759;26;20005;-53
2024/04/24 12:51:34;;;;;;;;;;;;;;;;;;5506981;25;19941;-55
2024/04/24 12:54:00;;;;;;;;;;;;;;;;;;5508885;26;20016;-56
2024/04/24 12:56:27;;;;;;;;;;;;;;;;;;5506996;25;19928;-57
2024/04/24 12:58:53;;;;;;;;;;;;;;;;;;5514268;26;19946;-58
2024/04/24 13:01:18;;;;;;;;;;;;;;;;;;5520103;25;19928;-59
2024/04/24 13:03:44;;;;;;;;;;;;;;;;;;5492248;25;20379;-55
2024/04/24 13:06:10;;;;;;;;;;;;;;;;;;5517309;25;19931;-55
2024/04/24 13:08:36;;;;;;;;;;;;;;;;;;5504751;26;19931;-55
2024/04/24 13:11:02;;;;;;;;;;;;;;;;;;5516791;25;19928;-56
2024/04/24 13:13:28;;;;;;;;;;;;;;;;;;5505024;25;20450;-55
2024/04/24 13:15:54;;;;;;;;;;;;;;;;;;5520836;25;19975;-52
2024/04/24 13:18:20;;;;;;;;;;;;;;;;;;5524151;25;19926;-52
2024/04/24 13:20:46;;;;;;;;;;;;;;;;;;5510205;25;19935;-54
2024/04/24 13:23:12;;;;;;;;;;;;;;;;;;5509057;25;19935;-54
2024/04/24 13:25:38;;;;;;;;;;;;;;;;;;5507595;25;19932;-54
2024/04/24 13:28:04;;;;;;;;;;;;;;;;;;5519245;25;19928;-54
2024/04/24 13:30:30;;;;;;;;;;;;;;;;;;5525912;25;20393;-54
2024/04/24 13:32:56;;;;;;;;;;;;;;;;;;5498832;26;19932;-53
2024/04/24 13:35:22;;;;;;;;;;;;;;;;;;5510109;25;19938;-53
2024/04/24 13:37:48;;;;;;;;;;;;;;;;;;5501261;25;19928;-53
2024/04/24 13:40:14;;;;;;;;;;;;;;;;;;5467084;26;19936;-53
2024/04/24 13:42:40;;;;;;;;;;;;;;;;;;5499754;26;19935;-54
2024/04/24 13:45:06;;;;;;;;;;;;;;;;;;5502142;25;19926;-54
2024/04/24 13:47:32;;;;;;;;;;;;;;;;;;5508762;25;19936;-54
2024/04/24 13:49:58;;;;;;;;;;;;;;;;;;5494119;25;20005;-54
2024/04/24 13:52:24;;;;;;;;;;;;;;;;;;5502198;26;20432;-54
2024/04/24 13:54:50;;;;;;;;;;;;;;;;;;5502287;25;19928;-55
2024/04/24 13:57:16;;;;;;;;;;;;;;;;;;5501927;25;19950;-53
2024/04/24 13:59:42;;;;;;;;;;;;;;;;;;5513916;26;19934;-55
2024/04/24 14:02:08;;;;;;;;;;;;;;;;;;5495398;25;20328;-55
2024/04/24 14:04:34;;;;;;;;;;;;;;;;;;5506279;26;20355;-54
2024/04/24 14:07:00;;;;;;;;;;;;;;;;;;5501157;25;19942;-55
2024/04/24 14:09:26;;;;;;;;;;;;;;;;;;5510573;25;20313;-54
2024/04/24 14:11:52;;;;;;;;;;;;;;;;;;5505021;25;20012;-55
2024/04/24 14:14:19;;;;;;;;;;;;;;;;;;5498986;26;20255;-56
2024/04/24 14:16:45;;;;;;;;;;;;;;;;;;5492889;26;20006;-56
2024/04/24 14:19:11;;;;;;;;;;;;;;;;;;5518772;26;19935;-56
2024/04/24 14:21:37;;;;;;;;;;;;;;;;;;5513951;25;19935;-56
2024/04/24 14:24:03;;;;;;;;;;;;;;;;;;5492892;26;20249;-54
2024/04/24 14:26:29;;;;;;;;;;;;;;;;;;5531478;25;20366;-53
2024/04/24 14:28:55;;;;;;;;;;;;;;;;;;5519816;25;19939;-55
2024/04/24 14:31:21;;;;;;;;;;;;;;;;;;5516031;26;20004;-57
2024/04/24 14:33:48;;;;;;;;;;;;;;;;;;5492898;26;19928;-56
2024/04/24 14:36:14;;;;;;;;;;;;;;;;;;5517896;25;19935;-55
2024/04/24 14:38:42;;;;;;;;;;;;;;;;;;5518053;26;19927;-55
2024/04/24 14:41:12;;;;;;;;;;;;;;;;;;5528960;25;20244;-56
2024/04/24 14:43:38;;;;;;;;;;;;;;;;;;5522392;26;19991;-55
2024/04/24 14:46:04;;;;;;;;;;;;;;;;;;5516716;25;19936;-54
2024/04/24 14:48:30;;;;;;;;;;;;;;;;;;5507134;26;20274;-53
2024/04/24 14:50:55;;;;;;;;;;;;;;;;;;5500877;25;19935;-54
2024/04/24 14:53:21;;;;;;;;;;;;;;;;;;5502740;26;19939;-53
2024/04/24 14:55:47;;;;;;;;;;;;;;;;;;5517866;25;19927;-53
2024/04/24 14:58:13;;;;;;;;;;;;;;;;;;5520354;26;19928;-52
2024/04/24 15:00:39;;;;;;;;;;;;;;;;;;5521253;25;19994;-56
2024/04/24 15:03:05;;;;;;;;;;;;;;;;;;5520220;26;19942;-53
2024/04/24 15:05:31;;;;;;;;;;;;;;;;;;5476987;26;19934;-52
2024/04/24 15:07:57;;;;;;;;;;;;;;;;;;5489452;26;19939;-55
2024/04/24 15:10:23;;;;;;;;;;;;;;;;;;5525706;25;19935;-54
2024/04/24 15:12:49;;;;;;;;;;;;;;;;;;5511248;25;19966;-54
2024/04/24 15:15:15;;;;;;;;;;;;;;;;;;5503842;26;19931;-53
2024/04/24 15:17:41;;;;;;;;;;;;;;;;;;5497445;26;19935;-53
2024/04/24 15:20:07;;;;;;;;;;;;;;;;;;5504570;25;19995;-54
2024/04/24 15:22:33;;;;;;;;;;;;;;;;;;5499049;26;19996;-57
2024/04/24 15:24:59;;;;;;;;;;;;;;;;;;5493918;25;19996;-57
2024/04/24 15:27:25;;;;;;;;;;;;;;;;;;5525955;25;19927;-57
2024/04/24 15:29:51;;;;;;;;;;;;;;;;;;5488821;25;19932;-57
2024/04/24 15:32:17;;;;;;;;;;;;;;;;;;5495973;25;20710;-56
2024/04/24 15:34:43;;;;;;;;;;;;;;;;;;5500095;26;20000;-57
2024/04/24 15:37:09;;;;;;;;;;;;;;;;;;5511877;25;19928;-57
2024/04/24 15:39:35;;;;;;;;;;;;;;;;;;5491965;26;20325;-57
2024/04/24 15:42:01;;;;;;;;;;;;;;;;;;5554665;25;19931;-58
2024/04/24 15:44:27;;;;;;;;;;;;;;;;;;5552053;25;19947;-57
2024/04/24 15:46:53;;;;;;;;;;;;;;;;;;5519470;25;19931;-57
2024/04/24 15:49:19;;;;;;;;;;;;;;;;;;5508201;26;19947;-57
2024/04/24 15:51:45;;;;;;;;;;;;;;;;;;5515413;25;20600;-57
2024/04/24 15:54:11;;;;;;;;;;;;;;;;;;5521681;26;19960;-57
2024/04/24 15:56:37;;;;;;;;;;;;;;;;;;5525856;25;20348;-57
2024/04/24 15:59:03;;;;;;;;;;;;;;;;;;5515329;26;20411;-57
2024/04/24 16:01:29;;;;;;;;;;;;;;;;;;5543855;25;19935;-58
2024/04/24 16:03:55;;;;;;;;;;;;;;;;;;5551323;25;19934;-57
2024/04/24 16:06:22;;;;;;;;;;;;;;;;;;5521382;25;19931;-58
2024/04/24 16:08:48;;;;;;;;;;;;;;;;;;5509149;26;20002;-58
2024/04/24 16:11:13;;;;;;;;;;;;;;;;;;5520413;25;19939;-58
2024/04/24 16:13:39;;;;;;;;;;;;;;;;;;5493001;26;19941;-58
2024/04/24 16:16:05;;;;;;;;;;;;;;;;;;5530778;25;19946;-58
2024/04/24 16:18:31;;;;;;;;;;;;;;;;;;5508948;26;19940;-58
2024/04/24 16:20:59;;;;;;;;;;;;;;;;;;5507110;25;19939;-58
2024/04/24 16:23:25;;;;;;;;;;;;;;;;;;5504946;26;19928;-58
2024/04/24 16:25:51;;;;;;;;;;;;;;;;;;5519069;25;19942;-58
2024/04/24 16:28:17;;;;;;;;;;;;;;;;;;5513113;25;19935;-58
2024/04/24 16:30:43;;;;;;;;;;;;;;;;;;5518630;26;19927;-58
2024/04/24 16:33:09;;;;;;;;;;;;;;;;;;5496733;26;19932;-57
2024/04/24 16:35:35;;;;;;;;;;;;;;;;;;5515964;26;19928;-57
2024/04/24 16:38:01;;;;;;;;;;;;;;;;;;5509793;26;20076;-57
2024/04/24 16:40:27;;;;;;;;;;;;;;;;;;5516369;26;20693;-57